Time;durP1;ratioP1;P1;durP2;ratioP2;P2;SDS_P1;SDS_P2;PMS_P1;PMS_P2;Temp;Humidity;BMP_temperature;BMP_pressure;BME280_temperature;BME280_humidity;BME280_pressure;Samples;Min_cycle;Max_cycle;Signal;HPM_P1;HPM_P2
2023/01/17 00:00:39;;;;;;;;;;;;;;;;;;5073165;28;20302;-59
2023/01/17 00:03:05;;;;;;;;;;;;;;;;;;5073511;28;19931;-59
2023/01/17 00:09:51;;;;;;;;;;;;;;;;;;5073906;28;20325;-58
2023/01/17 00:11:20;;;;;;;;;;;;;;;;;;5071901;28;20296;-59
2023/01/17 00:13:46;;;;;;;;;;;;;;;;;;5078517;28;19939;-60
2023/01/17 00:16:11;;;;;;;;;;;;;;;;;;5072822;28;19931;-62
2023/01/17 00:18:37;;;;;;;;;;;;;;;;;;5073561;28;19920;-60
2023/01/17 00:26:33;;;;;;;;;;;;;;;;;;5072636;28;20082;-60
2023/01/17 01:35:41;;;;;;;;;;;;;;;;;;5079509;28;20009;-61
2023/01/17 01:38:07;;;;;;;;;;;;;;;;;;5075984;28;19963;-61
2023/01/17 01:40:33;;;;;;;;;;;;;;;;;;5078890;28;19963;-59
2023/01/17 01:42:59;;;;;;;;;;;;;;;;;;5080211;28;20032;-61
2023/01/17 01:45:25;;;;;;;;;;;;;;;;;;5077563;28;19921;-61
2023/01/17 01:47:51;;;;;;;;;;;;;;;;;;5077453;28;19931;-59
2023/01/17 01:50:17;;;;;;;;;;;;;;;;;;5074710;28;20352;-62
2023/01/17 01:52:43;;;;;;;;;;;;;;;;;;5075885;28;20291;-61
2023/01/17 01:55:09;;;;;;;;;;;;;;;;;;5078133;28;19962;-59
2023/01/17 01:57:35;;;;;;;;;;;;;;;;;;5075695;28;20016;-61
2023/01/17 02:00:00;;;;;;;;;;;;;;;;;;5076677;28;20326;-60
2023/01/17 02:02:26;;;;;;;;;;;;;;;;;;5075735;28;20560;-61
2023/01/17 02:04:52;;;;;;;;;;;;;;;;;;5077574;28;19921;-61
2023/01/17 02:07:18;;;;;;;;;;;;;;;;;;5074127;28;19924;-60
2023/01/17 02:09:44;;;;;;;;;;;;;;;;;;5074618;28;20014;-61
2023/01/17 02:12:10;;;;;;;;;;;;;;;;;;5076034;28;19931;-59
2023/01/17 02:14:36;;;;;;;;;;;;;;;;;;5075322;28;19972;-60
2023/01/17 02:17:02;;;;;;;;;;;;;;;;;;5077197;28;20007;-61
2023/01/17 02:19:28;;;;;;;;;;;;;;;;;;5074973;28;19993;-60
2023/01/17 02:21:54;;;;;;;;;;;;;;;;;;5076606;28;20327;-61
2023/01/17 02:24:20;;;;;;;;;;;;;;;;;;5074379;28;20057;-60
2023/01/17 02:26:46;;;;;;;;;;;;;;;;;;5077720;28;19980;-60
2023/01/17 02:29:12;;;;;;;;;;;;;;;;;;5075848;28;19981;-62
2023/01/17 02:31:37;;;;;;;;;;;;;;;;;;5075428;28;19935;-62
2023/01/17 02:34:03;;;;;;;;;;;;;;;;;;5075696;28;19920;-61
2023/01/17 02:36:29;;;;;;;;;;;;;;;;;;5074989;28;19920;-62
2023/01/17 02:38:55;;;;;;;;;;;;;;;;;;5079900;28;19939;-61
2023/01/17 02:41:21;;;;;;;;;;;;;;;;;;5073250;28;20519;-60
2023/01/17 02:43:47;;;;;;;;;;;;;;;;;;5075633;28;19920;-61
2023/01/17 02:46:13;;;;;;;;;;;;;;;;;;5074652;28;19927;-60
2023/01/17 02:48:39;;;;;;;;;;;;;;;;;;5074234;28;19924;-62
2023/01/17 02:51:05;;;;;;;;;;;;;;;;;;5076094;28;19920;-62
2023/01/17 02:53:31;;;;;;;;;;;;;;;;;;5075853;28;20313;-61
2023/01/17 02:55:56;;;;;;;;;;;;;;;;;;5075641;28;20011;-62
2023/01/17 02:58:23;;;;;;;;;;;;;;;;;;5073457;28;19920;-61
2023/01/17 03:00:49;;;;;;;;;;;;;;;;;;5075460;28;19971;-62
2023/01/17 03:03:15;;;;;;;;;;;;;;;;;;5072801;28;20384;-60
2023/01/17 03:05:40;;;;;;;;;;;;;;;;;;5073870;28;19924;-61
2023/01/17 03:08:06;;;;;;;;;;;;;;;;;;5075219;28;19943;-62
2023/01/17 03:10:32;;;;;;;;;;;;;;;;;;5072706;28;19940;-61
2023/01/17 03:12:58;;;;;;;;;;;;;;;;;;5076107;28;19974;-60
2023/01/17 03:15:24;;;;;;;;;;;;;;;;;;5073022;28;19927;-62
2023/01/17 03:17:50;;;;;;;;;;;;;;;;;;5074819;28;19925;-61
2023/01/17 03:20:16;;;;;;;;;;;;;;;;;;5073272;28;20338;-61
2023/01/17 03:22:42;;;;;;;;;;;;;;;;;;5073658;28;19939;-61
2023/01/17 03:25:08;;;;;;;;;;;;;;;;;;5074477;28;20389;-61
2023/01/17 03:27:34;;;;;;;;;;;;;;;;;;5073875;28;19963;-62
2023/01/17 03:30:00;;;;;;;;;;;;;;;;;;5074588;28;19923;-61
2023/01/17 03:32:26;;;;;;;;;;;;;;;;;;5075499;28;19980;-60
2023/01/17 03:34:52;;;;;;;;;;;;;;;;;;5075124;28;19924;-61
2023/01/17 03:37:18;;;;;;;;;;;;;;;;;;5071824;28;19974;-62
2023/01/17 03:39:44;;;;;;;;;;;;;;;;;;5074120;28;20015;-61
2023/01/17 03:42:10;;;;;;;;;;;;;;;;;;5073973;28;19920;-60
2023/01/17 03:44:36;;;;;;;;;;;;;;;;;;5072933;28;19928;-60
2023/01/17 03:47:02;;;;;;;;;;;;;;;;;;5075144;28;19978;-62
2023/01/17 03:49:28;;;;;;;;;;;;;;;;;;5073225;28;20371;-62
2023/01/17 03:51:54;;;;;;;;;;;;;;;;;;5074555;28;19920;-61
2023/01/17 03:54:20;;;;;;;;;;;;;;;;;;5072318;28;19925;-61
2023/01/17 03:56:46;;;;;;;;;;;;;;;;;;5073908;28;19932;-61
2023/01/17 03:59:12;;;;;;;;;;;;;;;;;;5072712;28;19920;-60
2023/01/17 04:01:37;;;;;;;;;;;;;;;;;;5073148;28;19924;-61
2023/01/17 04:04:03;;;;;;;;;;;;;;;;;;5075183;28;19927;-60
2023/01/17 04:06:29;;;;;;;;;;;;;;;;;;5072387;28;19974;-60
2023/01/17 04:08:55;;;;;;;;;;;;;;;;;;5075438;28;19942;-62
2023/01/17 04:11:21;;;;;;;;;;;;;;;;;;5072252;28;19947;-61
2023/01/17 04:13:47;;;;;;;;;;;;;;;;;;5073675;28;19967;-61
2023/01/17 04:16:15;;;;;;;2.40;0.38;;;;;;;;;;5073246;28;20036;-61
2023/01/17 04:18:41;;;;;;;3.33;0.35;;;;;;;;;;5077637;28;20051;-61
2023/01/17 04:21:07;;;;;;;4.03;0.47;;;;;;;;;;5077247;28;20126;-60
2023/01/17 04:23:34;;;;;;;1.58;0.40;;;;;;;;;;5077330;28;20040;-62
2023/01/17 04:26:02;;;;;;;1.05;0.22;;;;;;;;;;5078007;28;20048;-61
2023/01/17 04:28:28;;;;;;;3.05;0.43;;;;;;;;;;5076557;28;20411;-59
2023/01/17 04:30:57;;;;;;;1.48;0.38;;;;;;;;;;5079813;28;20432;-61
2023/01/17 04:33:23;;;;;;;2.53;0.40;;;;;;;;;;5074895;28;20040;-61
2023/01/17 04:35:49;;;;;;;0.85;0.28;;;;;;;;;;5077716;28;20496;-62
2023/01/17 04:38:15;;;;;;;;;;;;;;;;;;5076586;28;20036;-61
2023/01/17 04:40:41;;;;;;;;;;;;;;;;;;5076322;28;19936;-61
2023/01/17 04:43:07;;;;;;;;;;;;;;;;;;5078252;28;19927;-61
2023/01/17 04:45:33;;;;;;;;;;;;;;;;;;5076696;28;20367;-62
2023/01/17 04:47:59;;;;;;;;;;;;;;;;;;5074302;28;19923;-60
2023/01/17 04:50:25;;;;;;;;;;;;;;;;;;5078556;28;19921;-61
2023/01/17 04:52:50;;;;;;;;;;;;;;;;;;5079940;28;19969;-60
2023/01/17 04:55:16;;;;;;;;;;;;;;;;;;5081526;28;19920;-62
2023/01/17 04:57:42;;;;;;;1.85;0.13;;;;;;;;;;5080742;28;20346;-61
2023/01/17 05:00:09;;;;;;;0.22;0.20;;;;;;;;;;5078985;28;20036;-61
2023/01/17 05:02:35;;;;;;;0.85;0.10;;;;;;;;;;5076237;28;20126;-60
2023/01/17 05:05:01;;;;;;;1.55;0.10;;;;;;;;;;5080774;28;20082;-60
2023/01/17 05:07:27;;;;;;;0.47;0.20;;;;;;;;;;5078201;28;20410;-60
2023/01/17 05:09:53;;;;;;;1.13;0.20;;;;;;;;;;5076405;28;20045;-61
2023/01/17 05:12:19;;;;;;;0.43;0.10;;;;;;;;;;5080554;28;20503;-60
2023/01/17 05:14:45;;;;;;;0.75;0.10;;;;;;;;;;5079421;28;20054;-62
2023/01/17 05:17:11;;;;;;;0.98;0.15;;;;;;;;;;5082258;28;20036;-60
2023/01/17 05:19:37;;;;;;;0.95;0.43;;;;;;;;;;5078748;28;20049;-61
2023/01/17 05:22:13;;;;;;;0.00;0.00;;;;;;;;;;5080400;28;20042;-60
2023/01/17 05:24:39;;;;;;;0.40;0.20;;;;;;;;;;5076105;28;20389;-61
2023/01/17 05:27:05;;;;;;;2.53;0.10;;;;;;;;;;5080236;28;20089;-61
2023/01/17 05:29:31;;;;;;;0.00;0.00;;;;;;;;;;5074077;28;20431;-61
2023/01/17 05:31:57;;;;;;;0.32;0.10;;;;;;;;;;5074966;28;20075;-60
2023/01/17 05:34:23;;;;;;;0.30;0.00;;;;;;;;;;5070262;28;20468;-61
2023/01/17 05:36:49;;;;;;;0.30;0.30;;;;;;;;;;5074634;28;20519;-61
2023/01/17 05:39:15;;;;;;;0.10;0.10;;;;;;;;;;5075633;28;20044;-60
2023/01/17 05:41:41;;;;;;;0.90;0.00;;;;;;;;;;5079142;28;20053;-60
2023/01/17 05:44:07;;;;;;;0.38;0.10;;;;;;;;;;5077451;28;20081;-61
2023/01/17 05:46:33;;;;;;;0.22;0.10;;;;;;;;;;5074046;28;20109;-60
2023/01/17 05:48:59;;;;;;;1.17;0.10;;;;;;;;;;5083487;28;20072;-61
2023/01/17 05:51:25;;;;;;;0.00;0.00;;;;;;;;;;5075925;28;20036;-60
2023/01/17 05:53:51;;;;;;;1.92;0.30;;;;;;;;;;5076166;28;20040;-62
2023/01/17 05:56:17;;;;;;;1.23;0.10;;;;;;;;;;5080571;28;20036;-60
2023/01/17 05:58:43;;;;;;;0.10;0.00;;;;;;;;;;5071195;28;20408;-60
2023/01/17 06:01:09;;;;;;;0.32;0.00;;;;;;;;;;5079071;28;20051;-60
2023/01/17 06:03:35;;;;;;;0.10;0.05;;;;;;;;;;5073589;28;20190;-60
2023/01/17 06:06:01;;;;;;;0.13;0.00;;;;;;;;;;5077574;28;20062;-59
2023/01/17 06:08:27;;;;;;;0.25;0.10;;;;;;;;;;5077610;28;20826;-62
2023/01/17 06:10:53;;;;;;;0.00;0.00;;;;;;;;;;5037511;28;1050985;-60
2023/01/17 06:13:20;;;;;;;0.35;0.10;;;;;;;;;;5079212;28;20121;-62
2023/01/17 06:15:47;;;;;;;0.30;0.10;;;;;;;;;;5080760;28;20716;-61
2023/01/17 06:18:14;;;;;;;1.27;0.20;;;;;;;;;;5079983;28;20523;-62
2023/01/17 06:20:40;;;;;;;0.25;0.00;;;;;;;;;;5074966;28;20508;-61
2023/01/17 06:23:08;;;;;;;0.60;0.10;;;;;;;;;;5076010;28;20143;-61
2023/01/17 06:25:38;;;;;;;0.40;0.05;;;;;;;;;;5075257;28;20044;-60
2023/01/17 06:28:04;;;;;;;1.92;0.20;;;;;;;;;;5078800;28;20070;-60
2023/01/17 06:30:30;;;;;;;0.00;0.00;;;;;;;;;;5078252;28;20609;-60
2023/01/17 06:32:56;;;;;;;0.20;0.00;;;;;;;;;;5077352;28;20048;-60
2023/01/17 06:35:22;;;;;;;0.22;0.10;;;;;;;;;;5079923;28;20156;-60
2023/01/17 06:37:54;;;;;;;0.52;0.30;;;;;;;;;;5078904;28;20036;-59
2023/01/17 06:40:20;;;;;;;0.20;0.05;;;;;;;;;;5074275;28;20048;-61
2023/01/17 06:42:46;;;;;;;0.98;0.10;;;;;;;;;;5080141;28;20040;-61
2023/01/17 06:45:12;;;;;;;1.70;1.15;;;;;;;;;;5079580;28;20560;-61
2023/01/17 06:47:38;;;;;;;1.60;0.20;;;;;;;;;;5076209;28;20044;-60
2023/01/17 06:50:04;;;;;;;2.13;0.20;;;;;;;;;;5078080;28;20040;-61
2023/01/17 06:52:30;;;;;;;0.15;0.10;;;;;;;;;;5076945;28;20036;-60
2023/01/17 06:54:56;;;;;;;0.57;0.40;;;;;;;;;;5075439;28;20062;-61
2023/01/17 06:57:22;;;;;;;0.82;0.20;;;;;;;;;;5075487;28;20044;-61
2023/01/17 06:59:48;;;;;;;0.43;0.10;;;;;;;;;;5075212;28;20127;-59
2023/01/17 07:02:14;;;;;;;0.10;0.10;;;;;;;;;;5079192;28;20039;-59
2023/01/17 07:04:40;;;;;;;0.30;0.10;;;;;;;;;;5071664;28;20504;-62
2023/01/17 07:07:06;;;;;;;1.10;0.20;;;;;;;;;;5075157;28;20048;-62
2023/01/17 07:09:32;;;;;;;0.80;0.10;;;;;;;;;;5072099;28;20045;-60
2023/01/17 07:12:00;;;;;;;0.30;0.10;;;;;;;;;;5074108;28;20079;-61
2023/01/17 07:14:27;;;;;;;3.35;0.30;;;;;;;;;;5073491;28;20106;-60
2023/01/17 07:16:53;;;;;;;1.25;0.28;;;;;;;;;;5071769;28;20049;-61
2023/01/17 07:19:19;;;;;;;0.17;0.15;;;;;;;;;;5076868;28;20079;-60
2023/01/17 07:21:45;;;;;;;0.52;0.52;;;;;;;;;;5075225;28;20712;-61
2023/01/17 07:24:11;;;;;;;0.68;0.30;;;;;;;;;;5073972;28;20045;-61
2023/01/17 07:26:38;;;;;;;0.77;0.30;;;;;;;;;;5072509;28;20558;-61
2023/01/17 07:29:05;;;;;;;0.05;0.05;;;;;;;;;;5075949;28;20040;-61
2023/01/17 07:31:34;;;;;;;0.68;0.40;;;;;;;;;;5071801;28;20047;-59
2023/01/17 07:34:00;;;;;;;1.38;0.20;;;;;;;;;;5073211;28;20443;-61
2023/01/17 07:36:26;;;;;;;0.00;0.00;;;;;;;;;;5070728;28;20074;-59
2023/01/17 07:38:52;;;;;;;0.15;0.10;;;;;;;;;;5073470;28;20036;-61
2023/01/17 07:41:18;;;;;;;0.00;0.00;;;;;;;;;;5079181;28;20051;-61
2023/01/17 07:43:44;;;;;;;2.60;0.25;;;;;;;;;;5074847;28;20048;-61
2023/01/17 07:46:10;;;;;;;0.43;0.10;;;;;;;;;;5076979;28;20399;-59
2023/01/17 07:48:36;;;;;;;1.75;0.25;;;;;;;;;;5076907;28;20073;-61
2023/01/17 07:51:02;;;;;;;0.32;0.10;;;;;;;;;;5069579;28;20044;-59
2023/01/17 07:53:30;;;;;;;0.17;0.10;;;;;;;;;;5074160;28;20040;-61
2023/01/17 07:56:01;;;;;;;0.85;0.40;;;;;;;;;;5074769;28;20531;-61
2023/01/17 07:58:27;;;;;;;0.20;0.10;;;;;;;;;;5075447;28;20048;-60
2023/01/17 08:00:53;;;;;;;0.65;0.00;;;;;;;;;;5078437;28;20044;-61
2023/01/17 08:03:19;;;;;;;0.15;0.05;;;;;;;;;;5073931;28;20070;-61
2023/01/17 08:05:56;;;;;;;0.10;0.10;;;;;;;;;;5074900;28;20044;-61
2023/01/17 08:08:22;;;;;;;0.30;0.30;;;;;;;;;;5076424;28;20041;-61
2023/01/17 08:10:50;;;;;;;0.10;0.08;;;;;;;;;;5077634;28;20091;-61
2023/01/17 08:13:16;;;;;;;0.47;0.10;;;;;;;;;;5079760;28;20051;-60
2023/01/17 08:15:42;;;;;;;0.20;0.15;;;;;;;;;;5076829;28;20096;-62
2023/01/17 08:18:08;;;;;;;2.60;0.30;;;;;;;;;;5075363;28;20040;-61
2023/01/17 08:20:34;;;;;;;;;;;;;;;;;;5077259;28;19932;-62
2023/01/17 08:23:00;;;;;;;;;;;;;;;;;;5082655;28;19924;-61
2023/01/17 08:25:26;;;;;;;;;;;;;;;;;;5068782;28;20334;-61
2023/01/17 08:27:53;;;;;;;;;;;;;;;;;;5074542;28;19932;-61
2023/01/17 08:30:18;;;;;;;;;;;;;;;;;;5075392;28;19935;-63
2023/01/17 08:32:44;;;;;;;;;;;;;;;;;;5070457;28;20221;-61
2023/01/17 08:35:10;;;;;;;;;;;;;;;;;;5077442;28;20292;-61
2023/01/17 08:37:37;;;;;;;;;;;;;;;;;;5074142;28;19932;-60
2023/01/17 08:40:04;;;;;;;;;;;;;;;;;;5073525;28;19935;-60
2023/01/17 08:42:36;;;;;;;;;;;;;;;;;;5073035;28;19924;-60
2023/01/17 08:45:01;;;;;;;;;;;;;;;;;;5071795;28;19931;-59
2023/01/17 08:47:27;;;;;;;;;;;;;;;;;;5069617;28;20582;-61
2023/01/17 08:49:53;;;;;;;;;;;;;;;;;;5066877;28;20391;-61
2023/01/17 08:52:19;;;;;;;;;;;;;;;;;;5074775;28;19948;-62
2023/01/17 08:54:45;;;;;;;;;;;;;;;;;;5067949;28;19924;-61
2023/01/17 08:57:11;;;;;;;;;;;;;;;;;;5074006;28;19924;-60
2023/01/17 08:59:37;;;;;;;;;;;;;;;;;;5073043;28;20368;-59
2023/01/17 09:02:13;;;;;;;;;;;;;;;;;;5070042;28;19924;-59
2023/01/17 09:04:39;;;;;;;;;;;;;;;;;;5076861;28;20015;-59
2023/01/17 09:07:06;;;;;;;;;;;;;;;;;;5084406;28;20027;-60
2023/01/17 09:09:32;;;;;;;;;;;;;;;;;;5086612;28;19991;-58
2023/01/17 09:11:58;;;;;;;;;;;;;;;;;;5088740;28;19963;-58
2023/01/17 09:14:23;;;;;;;;;;;;;;;;;;5086756;28;20391;-61
2023/01/17 09:16:49;;;;;;;;;;;;;;;;;;5087625;28;20023;-59
2023/01/17 09:19:15;;;;;;;;;;;;;;;;;;5085821;28;19924;-60
2023/01/17 09:21:41;;;;;;;;;;;;;;;;;;5067175;28;19924;-60
2023/01/17 09:24:07;;;;;;;;;;;;;;;;;;5085273;28;19985;-61
2023/01/17 09:26:33;;;;;;;;;;;;;;;;;;5088569;28;20395;-59
2023/01/17 09:28:59;;;;;;;;;;;;;;;;;;5085406;28;19924;-60
2023/01/17 09:31:25;;;;;;;;;;;;;;;;;;5082859;28;20389;-61
2023/01/17 09:33:51;;;;;;;;;;;;;;;;;;5071484;28;19935;-61
2023/01/17 09:36:17;;;;;;;;;;;;;;;;;;5065968;28;19925;-62
2023/01/17 09:38:43;;;;;;;;;;;;;;;;;;5079282;28;20381;-60
2023/01/17 09:41:09;;;;;;;;;;;;;;;;;;5073047;28;19924;-62
2023/01/17 09:43:35;;;;;;;;;;;;;;;;;;5080859;28;19924;-59
2023/01/17 09:46:01;;;;;;;;;;;;;;;;;;5071635;28;20404;-61
2023/01/17 09:48:27;;;;;;;;;;;;;;;;;;5072658;28;19930;-61
2023/01/17 09:50:53;;;;;;;;;;;;;;;;;;5075233;28;19925;-60
2023/01/17 09:53:21;;;;;;;;;;;;;;;;;;5074714;28;19983;-61
2023/01/17 09:55:47;;;;;;;;;;;;;;;;;;5079457;28;19929;-61
2023/01/17 09:58:13;;;;;;;;;;;;;;;;;;5078080;28;19964;-59
2023/01/17 10:00:39;;;;;;;;;;;;;;;;;;5080860;28;19967;-60
2023/01/17 10:03:05;;;;;;;;;;;;;;;;;;5081545;28;19930;-59
2023/01/17 10:05:31;;;;;;;;;;;;;;;;;;5078582;28;20444;-59
2023/01/17 10:07:57;;;;;;;;;;;;;;;;;;5084724;28;19931;-61
2023/01/17 10:10:23;;;;;;;;;;;;;;;;;;5083052;28;19955;-61
2023/01/17 10:12:49;;;;;;;;;;;;;;;;;;5084079;28;19935;-60
2023/01/17 10:15:15;;;;;;;;;;;;;;;;;;5086449;28;19931;-61
2023/01/17 10:17:41;;;;;;;;;;;;;;;;;;5082029;28;19929;-59
2023/01/17 10:20:07;;;;;;;;;;;;;;;;;;5087328;28;19924;-61
2023/01/17 10:22:33;;;;;;;;;;;;;;;;;;5079785;28;19928;-59
2023/01/17 10:24:59;;;;;;;;;;;;;;;;;;5067460;28;19925;-60
2023/01/17 10:27:25;;;;;;;;;;;;;;;;;;5075089;28;19931;-61
2023/01/17 10:29:51;;;;;;;;;;;;;;;;;;5079695;28;19950;-62
2023/01/17 10:32:17;;;;;;;;;;;;;;;;;;5074641;28;19925;-61
2023/01/17 10:34:43;;;;;;;;;;;;;;;;;;5084749;28;19924;-62
2023/01/17 10:37:09;;;;;;;;;;;;;;;;;;5078850;28;19936;-61
2023/01/17 10:39:34;;;;;;;;;;;;;;;;;;5079598;28;19947;-62
2023/01/17 10:42:00;;;;;;;;;;;;;;;;;;5081325;28;19924;-61
2023/01/17 10:44:26;;;;;;;;;;;;;;;;;;5069586;28;19935;-61
2023/01/17 10:46:52;;;;;;;;;;;;;;;;;;5071481;28;19924;-62
2023/01/17 10:49:18;;;;;;;;;;;;;;;;;;5066351;28;19974;-62
2023/01/17 10:51:48;;;;;;;;;;;;;;;;;;5084532;28;19955;-60
2023/01/17 10:54:14;;;;;;;;;;;;;;;;;;5085512;28;20015;-61
2023/01/17 10:56:40;;;;;;;;;;;;;;;;;;5086756;28;20015;-60
2023/01/17 10:59:14;;;;;;;1.08;0.20;;;;;;;;;;5086660;28;19929;-60
2023/01/17 11:01:40;;;;;;;;;;;;;;;;;;5082902;28;20067;-61
2023/01/17 11:04:06;;;;;;;;;;;;;;;;;;5079342;28;20022;-63
2023/01/17 11:06:32;;;;;;;;;;;;;;;;;;5084385;28;20011;-60
2023/01/17 11:08:58;;;;;;;;;;;;;;;;;;5083643;28;19930;-61
2023/01/17 11:11:29;;;;;;;1.17;0.20;;;;;;;;;;5085816;28;20077;-60
2023/01/17 11:13:56;;;;;;;3.75;0.30;;;;;;;;;;5077713;28;20412;-61
2023/01/17 11:16:24;;;;;;;1.08;0.20;;;;;;;;;;5085402;28;20050;-61
2023/01/17 11:19:05;;;;;;;0.45;0.20;;;;;;;;;;5077680;28;20093;-61
2023/01/17 11:21:31;;;;;;;;;;;;;;;;;;5077428;28;20036;-62
2023/01/17 11:23:57;;;;;;;;;;;;;;;;;;5084179;28;19942;-61
2023/01/17 11:26:23;;;;;;;;;;;;;;;;;;5085509;28;19963;-62
2023/01/17 11:28:51;;;;;;;;;;;;;;;;;;5085655;28;19920;-62
2023/01/17 11:31:16;;;;;;;;;;;;;;;;;;5086193;28;20327;-63
2023/01/17 11:33:54;;;;;;;;;;;;;;;;;;5086571;28;19920;-62
2023/01/17 11:36:20;;;;;;;;;;;;;;;;;;5077274;28;19920;-62
2023/01/17 11:38:46;;;;;;;;;;;;;;;;;;5071354;28;19966;-63
2023/01/17 11:41:19;;;;;;;;;;;;;;;;;;5066485;28;19962;-62
2023/01/17 11:43:52;;;;;;;3.10;1.10;;;;;;;;;;5066447;28;20371;-62
2023/01/17 11:46:19;;;;;;;;;;;;;;;;;;5074422;28;19932;-63
2023/01/17 11:48:45;;;;;;;;;;;;;;;;;;5086618;28;20019;-62
2023/01/17 11:51:11;;;;;;;;;;;;;;;;;;5079836;28;20011;-62
2023/01/17 11:53:36;;;;;;;;;;;;;;;;;;5075644;28;19924;-62
2023/01/17 11:56:04;;;;;;;;;;;;;;;;;;5079385;28;19928;-62
2023/01/17 11:58:29;;;;;;;;;;;;;;;;;;5087098;28;19947;-62
2023/01/17 12:00:55;;;;;;;;;;;;;;;;;;5086971;28;20380;-62
2023/01/17 12:03:21;;;;;;;;;;;;;;;;;;5085639;28;19928;-63
2023/01/17 12:05:50;;;;;;;;;;;;;;;;;;5085742;28;19977;-63
2023/01/17 12:08:15;;;;;;;;;;;;;;;;;;5068651;28;20442;-62
2023/01/17 12:10:41;;;;;;;;;;;;;;;;;;5065454;28;19925;-62
2023/01/17 12:15:52;;;;;;;;;;;;;;;;;;5075785;28;19967;-62
2023/01/17 12:18:18;;;;;;;;;;;;;;;;;;5075862;28;20386;-57
2023/01/17 12:20:46;;;;;;;1.47;0.80;;;;;;;;;;5077475;28;19928;-62
2023/01/17 12:23:35;;;;;;;0.95;0.30;;;;;;;;;;5084562;28;20042;-61
2023/01/17 12:26:01;;;;;;;;;;;;;;;;;;5078309;28;19967;-62
2023/01/17 12:28:27;;;;;;;;;;;;;;;;;;5074046;28;19959;-61
2023/01/17 12:30:53;;;;;;;;;;;;;;;;;;5073656;28;20371;-61
2023/01/17 12:33:19;;;;;;;;;;;;;;;;;;5063932;28;19920;-60
2023/01/17 12:35:45;;;;;;;;;;;;;;;;;;5067304;28;19947;-62
2023/01/17 12:38:11;;;;;;;;;;;;;;;;;;5074305;28;20157;-60
2023/01/17 12:40:37;;;;;;;;;;;;;;;;;;5067806;28;19928;-62
2023/01/17 12:43:03;;;;;;;;;;;;;;;;;;5067571;28;20121;-61
2023/01/17 12:45:30;;;;;;;;;;;;;;;;;;5067826;28;19931;-62
2023/01/17 12:47:57;;;;;;;;;;;;;;;;;;5079007;28;19931;-62
2023/01/17 12:50:23;;;;;;;;;;;;;;;;;;5068238;28;20093;-62
2023/01/17 12:52:50;;;;;;;;;;;;;;;;;;5067537;28;19932;-64
2023/01/17 12:55:16;;;;;;;;;;;;;;;;;;5068191;28;19920;-62
2023/01/17 12:57:42;;;;;;;;;;;;;;;;;;5069264;28;19920;-61
2023/01/17 13:00:08;;;;;;;;;;;;;;;;;;5068525;28;19931;-61
2023/01/17 13:02:34;;;;;;;;;;;;;;;;;;5071908;28;19930;-60
2023/01/17 13:05:00;;;;;;;;;;;;;;;;;;5078256;28;19921;-61
2023/01/17 13:07:26;;;;;;;;;;;;;;;;;;5053044;28;19939;-61
2023/01/17 13:09:51;;;;;;;;;;;;;;;;;;5077624;28;20007;-61
2023/01/17 13:12:17;;;;;;;;;;;;;;;;;;5068434;28;19924;-62
2023/01/17 13:14:43;;;;;;;;;;;;;;;;;;5078070;28;20384;-62
2023/01/17 13:17:10;;;;;;;;;;;;;;;;;;5079747;28;20288;-61
2023/01/17 13:19:36;;;;;;;;;;;;;;;;;;5082460;28;19988;-61
2023/01/17 13:22:02;;;;;;;;;;;;;;;;;;5079550;28;19920;-60
2023/01/17 13:24:29;;;;;;;;;;;;;;;;;;5075519;28;19924;-58
2023/01/17 13:26:55;;;;;;;;;;;;;;;;;;5082198;28;20390;-58
2023/01/17 13:29:21;;;;;;;;;;;;;;;;;;5087975;28;20019;-59
2023/01/17 13:31:47;;;;;;;;;;;;;;;;;;5088380;28;19920;-61
2023/01/17 13:34:13;;;;;;;;;;;;;;;;;;5086645;28;19924;-59
2023/01/17 13:36:39;;;;;;;;;;;;;;;;;;5087835;28;19928;-59
2023/01/17 13:39:05;;;;;;;;;;;;;;;;;;5088447;28;19965;-60
2023/01/17 13:41:31;;;;;;;;;;;;;;;;;;5083296;28;19920;-60
2023/01/17 13:46:41;;;;;;;;;;;;;;;;;;5068431;28;20303;-60
2023/01/17 13:49:07;;;;;;;;;;;;;;;;;;5067855;28;19975;-60
2023/01/17 13:51:33;;;;;;;;;;;;;;;;;;5079289;28;19975;-62
2023/01/17 13:53:59;;;;;;;;;;;;;;;;;;5082297;28;20023;-61
2023/01/17 13:56:25;;;;;;;;;;;;;;;;;;5085676;28;19920;-65
2023/01/17 13:58:56;;;;;;;;;;;;;;;;;;5087479;28;20330;-61
2023/01/17 14:01:22;;;;;;;;;;;;;;;;;;5087263;28;20398;-61
2023/01/17 14:03:48;;;;;;;;;;;;;;;;;;5087052;28;19924;-60
2023/01/17 14:06:14;;;;;;;;;;;;;;;;;;5087401;28;19985;-59
2023/01/17 14:08:40;;;;;;;;;;;;;;;;;;5087381;28;19971;-61
2023/01/17 14:11:10;;;;;;;;;;;;;;;;;;5087175;28;19995;-59
2023/01/17 14:13:37;;;;;;;;;;;;;;;;;;5088062;28;19966;-61
2023/01/17 14:16:03;;;;;;;;;;;;;;;;;;5088081;28;20415;-59
2023/01/17 14:18:29;;;;;;;;;;;;;;;;;;5087732;28;19924;-62
2023/01/17 14:20:54;;;;;;;;;;;;;;;;;;5088060;28;19920;-62
2023/01/17 14:23:20;;;;;;;;;;;;;;;;;;5087708;28;19967;-61
2023/01/17 14:25:46;;;;;;;;;;;;;;;;;;5087270;28;19928;-61
2023/01/17 14:28:12;;;;;;;;;;;;;;;;;;5087574;28;19920;-59
2023/01/17 14:30:38;;;;;;;;;;;;;;;;;;5087987;28;20019;-60
2023/01/17 14:33:04;;;;;;;;;;;;;;;;;;5087195;28;19972;-60
2023/01/17 14:35:30;;;;;;;;;;;;;;;;;;5087843;28;19985;-61
2023/01/17 14:38:04;;;;;;;;;;;;;;;;;;5087238;28;20013;-62
2023/01/17 14:40:30;;;;;;;;;;;;;;;;;;5086609;28;19920;-62
2023/01/17 14:42:55;;;;;;;;;;;;;;;;;;5087792;28;19939;-60
2023/01/17 14:45:21;;;;;;;;;;;;;;;;;;5087027;28;19947;-61
2023/01/17 14:47:50;;;;;;;;;;;;;;;;;;5087474;28;20390;-60
2023/01/17 14:50:16;;;;;;;;;;;;;;;;;;5079954;28;19936;-60
2023/01/17 14:52:43;;;;;;;;;;;;;;;;;;5076847;28;19920;-61
2023/01/17 14:55:09;;;;;;;;;;;;;;;;;;5074500;28;19927;-60
2023/01/17 14:57:35;;;;;;;;;;;;;;;;;;5077157;28;19920;-61
2023/01/17 15:00:01;;;;;;;;;;;;;;;;;;5078530;28;19924;-59
2023/01/17 15:02:27;;;;;;;;;;;;;;;;;;5077814;28;20403;-61
2023/01/17 15:04:53;;;;;;;;;;;;;;;;;;5086911;28;19959;-61
2023/01/17 15:07:19;;;;;;;;;;;;;;;;;;5086167;28;19932;-61
2023/01/17 15:09:45;;;;;;;;;;;;;;;;;;5087047;28;20014;-61
2023/01/17 15:12:13;;;;;;;;;;;;;;;;;;5085049;28;19956;-61
2023/01/17 15:14:39;;;;;;;;;;;;;;;;;;5073352;28;19924;-60
2023/01/17 15:17:05;;;;;;;;;;;;;;;;;;5078389;28;19942;-60
2023/01/17 15:19:30;;;;;;;;;;;;;;;;;;5077044;28;19927;-61
2023/01/17 15:21:57;;;;;;;;;;;;;;;;;;5082097;28;19920;-60
2023/01/17 15:24:22;;;;;;;;;;;;;;;;;;5084993;28;19947;-63
2023/01/17 15:26:48;;;;;;;;;;;;;;;;;;5074114;28;19947;-64
2023/01/17 15:29:14;;;;;;;;;;;;;;;;;;5081500;28;20437;-62
2023/01/17 15:31:40;;;;;;;;;;;;;;;;;;5085819;28;20391;-62
2023/01/17 15:34:06;;;;;;;;;;;;;;;;;;5082489;28;19970;-60
2023/01/17 15:36:33;;;;;;;;;;;;;;;;;;5077004;28;20280;-59
2023/01/17 15:38:59;;;;;;;;;;;;;;;;;;5079051;28;19932;-60
2023/01/17 15:41:25;;;;;;;;;;;;;;;;;;5078352;28;20314;-60
2023/01/17 15:43:56;;;;;;;;;;;;;;;;;;5080380;28;20278;-62
2023/01/17 15:46:22;;;;;;;;;;;;;;;;;;5080809;28;19924;-61
2023/01/17 15:48:48;;;;;;;;;;;;;;;;;;5081472;28;19946;-62
2023/01/17 15:51:15;;;;;;;;;;;;;;;;;;5081153;28;19923;-61
2023/01/17 15:53:41;;;;;;;;;;;;;;;;;;5084692;28;19975;-60
2023/01/17 15:56:06;;;;;;;;;;;;;;;;;;5080908;28;20406;-63
2023/01/17 15:58:32;;;;;;;;;;;;;;;;;;5077008;28;19920;-61
2023/01/17 16:00:58;;;;;;;;;;;;;;;;;;5077324;28;19935;-62
2023/01/17 16:03:24;;;;;;;;;;;;;;;;;;5075319;28;19965;-62
2023/01/17 16:05:50;;;;;;;;;;;;;;;;;;5072492;28;19920;-61
2023/01/17 16:08:16;;;;;;;;;;;;;;;;;;5078430;28;19947;-62
2023/01/17 16:10:42;;;;;;;;;;;;;;;;;;5076494;28;20003;-61
2023/01/17 16:13:08;;;;;;;;;;;;;;;;;;5083184;28;19924;-60
2023/01/17 16:15:35;;;;;;;1.67;0.43;;;;;;;;;;5087936;28;19920;-62
2023/01/17 16:18:01;;;;;;;2.03;0.47;;;;;;;;;;5084171;28;20036;-63
2023/01/17 16:20:30;;;;;;;2.05;0.95;;;;;;;;;;5089574;28;20055;-61
2023/01/17 16:22:55;;;;;;;1.60;0.75;;;;;;;;;;5087029;28;20044;-62
2023/01/17 16:25:22;;;;;;;2.28;1.00;;;;;;;;;;5086724;28;20051;-61
2023/01/17 16:27:49;;;;;;;3.00;1.40;;;;;;;;;;5086272;28;20047;-61
2023/01/17 16:30:20;;;;;;;2.63;0.95;;;;;;;;;;5086083;28;20135;-62
2023/01/17 16:32:47;;;;;;;2.58;1.35;;;;;;;;;;5085847;28;20477;-60
2023/01/17 16:35:27;;;;;;;6.05;1.80;;;;;;;;;;5083802;28;20044;-59
2023/01/17 16:37:53;;;;;;;;;;;;;;;;;;5082468;28;19928;-60
2023/01/17 16:40:19;;;;;;;;;;;;;;;;;;5088079;28;19920;-61
2023/01/17 16:42:45;;;;;;;;;;;;;;;;;;5089419;28;20004;-60
2023/01/17 16:45:11;;;;;;;;;;;;;;;;;;5084076;28;20375;-59
2023/01/17 16:47:37;;;;;;;;;;;;;;;;;;5079951;28;19928;-60
2023/01/17 16:50:02;;;;;;;;;;;;;;;;;;5073995;28;19920;-61
2023/01/17 16:52:28;;;;;;;;;;;;;;;;;;5077363;28;19924;-59
2023/01/17 16:54:54;;;;;;;;;;;;;;;;;;5088207;28;19928;-61
2023/01/17 16:57:21;;;;;;;;;;;;;;;;;;5087269;28;20398;-59
2023/01/17 16:59:47;;;;;;;;;;;;;;;;;;5084787;28;19920;-61
2023/01/17 17:02:13;;;;;;;;;;;;;;;;;;5080811;28;20409;-59
2023/01/17 17:04:39;;;;;;;;;;;;;;;;;;5074155;28;19974;-59
2023/01/17 17:07:05;;;;;;;;;;;;;;;;;;5082353;28;19920;-59
2023/01/17 17:09:31;;;;;;;;;;;;;;;;;;5086010;28;20291;-61
2023/01/17 17:11:57;;;;;;;;;;;;;;;;;;5082484;28;19920;-61
2023/01/17 17:14:23;;;;;;;;;;;;;;;;;;5071865;28;19932;-59
2023/01/17 17:16:52;;;;;;;;;;;;;;;;;;5081506;28;19920;-59
2023/01/17 17:19:18;;;;;;;;;;;;;;;;;;5086442;28;19920;-59
2023/01/17 17:21:44;;;;;;;;;;;;;;;;;;5087846;28;19965;-59
2023/01/17 17:24:10;;;;;;;;;;;;;;;;;;5087694;28;19967;-60